createdAt,value
2022-08-04T00:01:04.633Z,5.43
2022-08-04T00:03:44.443Z,3.72
2022-08-04T00:06:24.808Z,5.47
2022-08-04T00:08:59.835Z,2.95
2022-08-04T00:11:32.540Z,4.47
2022-08-04T00:14:06.432Z,5.50
2022-08-04T00:16:39.116Z,5.97
2022-08-04T00:19:14.095Z,3.55
2022-08-04T00:21:49.773Z,3.15
2022-08-04T00:24:21.944Z,6.55
2022-08-04T00:26:53.909Z,3.53
2022-08-04T00:29:24.418Z,6.63
2022-08-04T00:31:57.960Z,6.78
2022-08-04T00:34:30.085Z,7.47
2022-08-04T00:37:01.466Z,5.70
2022-08-04T00:39:32.516Z,5.32
2022-08-04T00:42:23.117Z,6.13
2022-08-04T00:45:25.785Z,4.63
2022-08-04T00:48:06.092Z,4.95
2022-08-04T00:50:46.317Z,6.78
2022-08-04T00:53:33.134Z,4.50
2022-08-04T00:56:18.006Z,4.65
2022-08-04T00:59:12.548Z,3.45
2022-08-04T01:02:00.817Z,8.75
2022-08-04T01:04:47.418Z,3.92
2022-08-04T01:07:39.141Z,7.93
2022-08-04T01:10:17.512Z,6.97
2022-08-04T01:13:15.354Z,5.65
2022-08-04T01:16:00.563Z,4.50
2022-08-04T01:18:43.192Z,3.45
2022-08-04T01:21:43.874Z,7.55
2022-08-04T01:24:31.406Z,2.67
2022-08-04T01:27:07.798Z,2.22
2022-08-04T01:29:49.400Z,4.70
2022-08-04T01:32:25.727Z,4.18
2022-08-04T01:35:02.473Z,2.53
2022-08-04T01:37:49.405Z,3.25
2022-08-04T01:40:20.781Z,5.18
2022-08-04T01:42:53.990Z,5.70
2022-08-04T01:45:26.839Z,2.75
2022-08-04T01:47:57.494Z,4.72
2022-08-04T01:50:28.645Z,4.10
2022-08-04T01:52:58.176Z,4.75
2022-08-04T01:55:55.218Z,14.85
2022-08-04T01:58:22.454Z,2.70
2022-08-04T02:01:00.058Z,4.78
2022-08-04T02:04:18.839Z,5.32
2022-08-04T02:06:32.033Z,3.60
2022-08-04T02:09:10.542Z,7.70
2022-08-04T02:11:43.334Z,5.88
2022-08-04T02:14:40.078Z,3.00
2022-08-04T02:17:15.048Z,3.53
2022-08-04T02:20:01.587Z,6.38
2022-08-04T02:22:36.126Z,5.43
2022-08-04T02:25:09.514Z,3.45
2022-08-04T02:27:59.917Z,4.65
2022-08-04T02:30:39.581Z,3.60
2022-08-04T02:33:15.035Z,5.93
2022-08-04T02:35:48.205Z,4.45
2022-08-04T02:38:26.394Z,5.65
2022-08-04T02:41:00.426Z,3.38
2022-08-04T02:43:52.184Z,3.65
2022-08-04T02:48:54.753Z,4.43
2022-08-04T02:51:30.612Z,5.28
2022-08-04T02:54:02.069Z,8.02
2022-08-04T02:56:33.075Z,7.18
2022-08-04T02:59:04.434Z,4.38
2022-08-04T03:01:35.099Z,3.60
2022-08-04T03:04:24.715Z,4.90
2022-08-04T03:07:48.558Z,5.63
2022-08-04T03:10:48.081Z,6.03
2022-08-04T03:13:40.193Z,5.97
2022-08-04T03:16:38.963Z,7.10
2022-08-04T03:19:43.458Z,4.38
2022-08-04T03:23:14.477Z,4.53
2022-08-04T03:26:26.589Z,12.68
2022-08-04T03:29:36.501Z,3.78
2022-08-04T03:32:45.490Z,4.68
2022-08-04T03:35:46.244Z,5.07
2022-08-04T03:38:55.737Z,6.57
2022-08-04T03:41:51.639Z,9.95
2022-08-04T03:45:20.516Z,5.07
2022-08-04T03:51:32.459Z,7.43
2022-08-04T03:54:45.852Z,5.85
2022-08-04T03:57:42.473Z,5.20
2022-08-04T04:00:15.793Z,6.18
2022-08-04T04:03:13.436Z,7.63
2022-08-04T04:06:44.840Z,6.65
2022-08-04T04:10:05.926Z,6.88
2022-08-04T04:13:09.446Z,4.68
2022-08-04T04:16:08.866Z,5.18
2022-08-04T04:19:03.624Z,6.47
2022-08-04T04:21:53.225Z,8.98
2022-08-04T04:25:05.699Z,8.57
2022-08-04T04:27:50.765Z,6.75
2022-08-04T04:30:27.090Z,8.38
2022-08-04T04:33:14.781Z,7.28
2022-08-04T04:35:54.788Z,7.40
2022-08-04T04:38:46.567Z,7.30
2022-08-04T04:41:43.346Z,9.82
2022-08-04T04:44:51.943Z,13.68
2022-08-04T04:47:43.102Z,7.80
2022-08-04T04:50:36.739Z,8.77
2022-08-04T04:53:17.769Z,12.35
2022-08-04T04:55:53.186Z,8.38
2022-08-04T04:58:24.730Z,9.88
2022-08-04T05:01:22.146Z,9.27
2022-08-04T05:04:18.882Z,11.07
2022-08-04T05:07:10.238Z,16.35
2022-08-04T05:09:54.122Z,12.27
2022-08-04T05:14:31.727Z,9.45
2022-08-04T05:15:32.464Z,9.73
2022-08-04T05:18:05.878Z,13.38
2022-08-04T05:20:40.464Z,11.65
2022-08-04T05:23:15.244Z,12.30
2022-08-04T05:25:59.168Z,11.15
2022-08-04T05:28:34.841Z,17.35
2022-08-04T05:31:08.117Z,9.23
2022-08-04T05:33:42.953Z,12.27
2022-08-04T05:36:39.559Z,12.32
2022-08-04T05:39:13.598Z,8.95
2022-08-04T05:41:55.007Z,11.02
2022-08-04T05:44:26.800Z,15.27
2022-08-04T05:46:59.537Z,12.10
2022-08-04T05:49:31.214Z,10.93
2022-08-04T05:52:03.810Z,11.00
2022-08-04T05:54:34.735Z,7.30
2022-08-04T05:57:06.145Z,12.65
2022-08-04T05:59:41.093Z,11.40
2022-08-04T06:02:12.335Z,15.13
2022-08-04T06:04:45.145Z,9.18
2022-08-04T06:07:15.652Z,7.95
2022-08-04T06:09:45.663Z,12.55
2022-08-04T06:12:19.791Z,14.35
2022-08-04T06:14:53.307Z,13.25
2022-08-04T06:19:04.995Z,11.98
2022-08-04T06:20:22.963Z,19.27
2022-08-04T06:22:56.116Z,19.58
2022-08-04T06:25:29.825Z,17.58
2022-08-04T06:28:01.176Z,13.55
2022-08-04T06:30:33.545Z,19.27
2022-08-04T06:33:13.870Z,12.95
2022-08-04T06:35:46.580Z,10.13
2022-08-04T06:38:16.000Z,8.02
2022-08-04T06:40:51.945Z,6.40
2022-08-04T06:43:21.600Z,9.50
2022-08-04T06:45:51.236Z,8.93
2022-08-04T06:48:23.108Z,9.85
2022-08-04T06:51:24.505Z,6.60
2022-08-04T06:53:54.646Z,9.13
2022-08-04T06:56:25.611Z,12.40
2022-08-04T06:58:56.085Z,6.90
2022-08-04T07:01:27.417Z,11.13
2022-08-04T07:03:58.070Z,8.77
2022-08-04T07:06:29.162Z,9.82
2022-08-04T07:08:59.941Z,5.10
2022-08-04T07:11:30.258Z,7.38
2022-08-04T07:14:14.655Z,12.45
2022-08-04T07:19:15.919Z,5.13
2022-08-04T07:22:06.495Z,10.88
2022-08-04T07:24:41.089Z,6.07
2022-08-04T07:27:12.745Z,20.35
2022-08-04T07:29:42.777Z,8.50
2022-08-04T07:34:44.742Z,12.05
2022-08-04T07:37:20.983Z,13.88
2022-08-04T07:39:51.244Z,9.55
2022-08-04T07:42:21.623Z,12.15
2022-08-04T07:44:51.780Z,7.47
2022-08-04T07:47:25.493Z,9.38
2022-08-04T07:49:57.558Z,5.60
2022-08-04T07:52:30.298Z,5.47
2022-08-04T07:55:00.561Z,7.00
2022-08-04T07:57:41.299Z,10.90
2022-08-04T08:00:15.223Z,10.90
2022-08-04T08:02:47.349Z,11.10
2022-08-04T08:05:18.530Z,6.18
2022-08-04T08:07:54.838Z,7.25
2022-08-04T08:10:25.329Z,4.47
2022-08-04T08:12:55.689Z,7.68
2022-08-04T08:15:25.658Z,3.88
2022-08-04T08:20:32.559Z,7.35
2022-08-04T08:23:04.493Z,5.68
2022-08-04T08:25:35.388Z,6.50
2022-08-04T08:28:06.417Z,6.80
2022-08-04T08:30:36.618Z,4.40
2022-08-04T08:33:08.967Z,8.15
2022-08-04T08:35:53.821Z,3.88
2022-08-04T08:38:51.413Z,11.25
2022-08-04T08:41:56.893Z,4.22
2022-08-04T08:44:57.624Z,10.00
2022-08-04T08:48:05.131Z,6.57
2022-08-04T08:51:00.150Z,5.75
2022-08-04T08:54:00.231Z,5.35
2022-08-04T08:56:39.006Z,5.50
2022-08-04T08:59:37.934Z,7.10
2022-08-04T09:02:44.406Z,5.97
2022-08-04T09:05:31.485Z,3.92
2022-08-04T09:08:13.297Z,4.82
2022-08-04T09:10:48.421Z,3.80
2022-08-04T09:13:27.955Z,4.25
2022-08-04T09:16:05.537Z,2.97
2022-08-04T09:18:43.538Z,5.75
2022-08-04T09:21:24.013Z,6.05
2022-08-04T09:26:36.262Z,9.00
2022-08-04T09:29:11.546Z,5.75
2022-08-04T09:32:06.307Z,5.75
2022-08-04T09:34:45.574Z,6.78
2022-08-04T09:37:26.860Z,5.45
2022-08-04T09:40:05.313Z,7.60
2022-08-04T09:42:47.158Z,5.83
2022-08-04T09:45:41.194Z,4.53
2022-08-04T09:48:19.027Z,5.20
2022-08-04T09:50:58.459Z,6.40
2022-08-04T09:53:48.445Z,5.82
2022-08-04T09:56:29.903Z,4.88
2022-08-04T09:59:12.729Z,9.18
2022-08-04T10:01:46.389Z,4.68
2022-08-04T10:04:20.181Z,5.43
2022-08-04T10:07:06.622Z,6.82
2022-08-04T10:09:49.300Z,11.55
2022-08-04T10:12:31.671Z,6.15
2022-08-04T10:15:12.570Z,3.30
2022-08-04T10:18:01.276Z,5.18
2022-08-04T10:21:00.040Z,7.18
2022-08-04T10:23:56.337Z,4.45
2022-08-04T10:26:37.066Z,7.65
2022-08-04T10:29:14.231Z,5.13
2022-08-04T10:31:49.965Z,4.88
2022-08-04T10:34:23.327Z,4.68
2022-08-04T10:36:58.673Z,7.25
2022-08-04T10:39:44.112Z,5.13
2022-08-04T10:42:22.089Z,3.85
2022-08-04T10:45:07.670Z,5.05
2022-08-04T10:47:45.553Z,4.65
2022-08-04T10:50:28.082Z,3.45
2022-08-04T10:53:04.733Z,5.20
2022-08-04T10:56:05.596Z,3.22
2022-08-04T10:58:47.536Z,5.03
2022-08-04T11:02:03.041Z,11.30
2022-08-04T11:04:26.990Z,3.97
2022-08-04T11:07:00.327Z,4.90
2022-08-04T11:09:31.907Z,5.30
2022-08-04T11:12:12.265Z,5.95
2022-08-04T11:14:48.515Z,2.80
2022-08-04T11:17:23.072Z,3.17
2022-08-04T11:20:32.241Z,4.63
2022-08-04T11:23:02.264Z,8.70
2022-08-04T11:28:12.579Z,4.03
2022-08-04T11:30:49.244Z,2.88
2022-08-04T11:33:29.105Z,4.05
2022-08-04T11:36:05.256Z,3.35
2022-08-04T11:38:52.004Z,3.47
2022-08-04T11:41:28.248Z,3.45
2022-08-04T11:44:01.934Z,5.60
2022-08-04T11:46:41.342Z,3.10
2022-08-04T11:49:18.140Z,3.33
2022-08-04T11:51:50.251Z,5.53
2022-08-04T11:54:22.074Z,4.75
2022-08-04T11:56:52.383Z,3.28
2022-08-04T11:59:24.273Z,4.70
2022-08-04T12:02:20.998Z,7.50
2022-08-04T12:04:59.441Z,6.50
2022-08-04T12:07:43.242Z,4.50
2022-08-04T12:10:41.220Z,3.15
2022-08-04T12:13:28.370Z,4.32
2022-08-04T12:16:07.509Z,5.10
2022-08-04T12:18:41.793Z,3.60
2022-08-04T12:21:18.954Z,6.03
2022-08-04T12:23:56.622Z,2.88
2022-08-04T12:26:53.803Z,6.72
2022-08-04T12:29:25.702Z,5.07
2022-08-04T12:31:58.636Z,10.38
2022-08-04T12:34:34.120Z,9.05
2022-08-04T12:37:08.698Z,9.90
2022-08-04T12:40:28.855Z,4.55
2022-08-04T12:42:56.271Z,6.15
2022-08-04T12:45:30.277Z,9.05
2022-08-04T12:48:01.202Z,8.43
2022-08-04T12:50:33.664Z,8.45
2022-08-04T12:53:04.099Z,3.70
2022-08-04T12:55:37.417Z,8.80
2022-08-04T12:58:43.236Z,5.22
2022-08-04T13:02:08.529Z,10.38
2022-08-04T13:04:02.577Z,6.43
2022-08-04T13:06:37.343Z,6.30
2022-08-04T13:09:09.853Z,6.18
2022-08-04T13:11:54.125Z,8.18
2022-08-04T13:14:27.828Z,9.25
2022-08-04T13:17:02.154Z,4.13
2022-08-04T13:19:41.202Z,4.22
2022-08-04T13:22:12.061Z,8.82
2022-08-04T13:25:18.006Z,5.13
2022-08-04T13:27:43.518Z,3.45
2022-08-04T13:30:23.122Z,6.03
2022-08-04T13:32:59.324Z,7.90
2022-08-04T13:35:55.442Z,4.18
2022-08-04T13:38:20.799Z,5.43
2022-08-04T13:40:51.138Z,7.30
2022-08-04T13:44:17.045Z,9.48
2022-08-04T13:46:27.052Z,4.05
2022-08-04T13:51:57.564Z,9.18
2022-08-04T13:54:30.558Z,6.53
2022-08-04T13:57:03.991Z,5.43
2022-08-04T13:59:38.297Z,6.07
2022-08-04T14:02:12.195Z,6.50
2022-08-04T14:04:50.753Z,4.55
2022-08-04T14:07:22.962Z,6.30
2022-08-04T14:10:02.700Z,5.68
2022-08-04T14:12:45.500Z,4.28
2022-08-04T14:16:02.159Z,4.90
2022-08-04T14:18:26.367Z,6.05
2022-08-04T14:21:05.813Z,4.15
2022-08-04T14:23:47.689Z,3.60
2022-08-04T14:26:30.024Z,8.25
2022-08-04T14:29:26.847Z,4.40
2022-08-04T14:32:12.578Z,8.27
2022-08-04T14:34:47.298Z,8.52
2022-08-04T14:37:22.905Z,5.72
2022-08-04T14:40:18.066Z,5.00
2022-08-04T14:42:54.921Z,6.22
2022-08-04T14:45:33.691Z,6.13
2022-08-04T14:48:04.692Z,5.85
2022-08-04T14:50:41.207Z,3.33
2022-08-04T14:53:13.217Z,7.65
2022-08-04T14:55:47.801Z,3.65
2022-08-04T14:58:35.957Z,4.32
2022-08-04T15:01:12.143Z,8.65
2022-08-04T15:03:50.449Z,14.25
2022-08-04T15:06:26.540Z,3.60
2022-08-04T15:09:01.345Z,8.55
2022-08-04T15:11:30.893Z,4.47
2022-08-04T15:14:01.694Z,6.28
2022-08-04T15:16:33.135Z,3.95
2022-08-04T15:19:03.695Z,7.93
2022-08-04T15:21:35.160Z,3.95
2022-08-04T15:24:05.617Z,4.45
2022-08-04T15:26:38.462Z,3.60
2022-08-04T15:29:16.709Z,4.43
2022-08-04T15:32:06.130Z,4.60
2022-08-04T15:34:49.011Z,5.45
2022-08-04T15:37:32.912Z,6.53
2022-08-04T15:40:13.650Z,6.30
2022-08-04T15:42:49.222Z,7.82
2022-08-04T15:46:02.383Z,6.15
2022-08-04T15:48:28.622Z,5.53
2022-08-04T15:51:07.246Z,7.00
2022-08-04T15:54:27.427Z,4.15
2022-08-04T15:57:04.182Z,12.50
2022-08-04T16:00:00.501Z,7.53
2022-08-04T16:02:51.028Z,3.83
2022-08-04T16:05:43.926Z,4.50
2022-08-04T16:08:16.206Z,8.32
2022-08-04T16:10:51.061Z,9.18
2022-08-04T16:13:24.014Z,7.78
2022-08-04T16:15:55.800Z,5.50
2022-08-04T16:18:44.159Z,5.10
2022-08-04T16:21:22.558Z,6.45
2022-08-04T16:24:19.001Z,8.50
2022-08-04T16:26:57.258Z,6.78
2022-08-04T16:29:35.847Z,8.50
2022-08-04T16:32:17.163Z,6.93
2022-08-04T16:34:56.502Z,5.47
2022-08-04T16:37:35.415Z,5.72
2022-08-04T16:40:34.685Z,6.85
2022-08-04T16:43:13.094Z,9.95
2022-08-04T16:45:54.478Z,9.05
2022-08-04T16:48:27.910Z,10.57
2022-08-04T16:51:04.966Z,8.38
2022-08-04T16:53:53.137Z,8.40
2022-08-04T16:56:32.925Z,5.85
2022-08-04T16:59:13.583Z,7.97
2022-08-04T17:01:50.622Z,24.15
2022-08-04T17:04:29.505Z,11.32
2022-08-04T17:07:02.992Z,14.48
2022-08-04T17:09:33.075Z,14.57
2022-08-04T17:12:03.149Z,9.98
2022-08-04T17:14:33.764Z,8.57
2022-08-04T17:17:08.741Z,11.15
2022-08-04T17:19:38.607Z,5.35
2022-08-04T17:22:10.816Z,9.57
2022-08-04T17:24:42.411Z,7.22
2022-08-04T17:28:19.918Z,5.25
2022-08-04T17:30:03.394Z,5.78
2022-08-04T17:32:35.120Z,10.35
2022-08-04T17:35:08.017Z,6.28
2022-08-04T17:37:52.260Z,8.30
2022-08-04T17:40:25.998Z,7.50
2022-08-04T17:44:02.949Z,6.13
2022-08-04T17:48:46.354Z,8.80
2022-08-04T17:51:17.406Z,11.15
2022-08-04T17:54:02.821Z,11.65
2022-08-04T17:56:36.344Z,8.63
2022-08-04T17:59:52.185Z,11.48
2022-08-04T18:02:14.421Z,6.85
2022-08-04T18:05:06.230Z,16.30
2022-08-04T18:08:38.895Z,7.03
2022-08-04T18:10:51.583Z,6.10
2022-08-04T18:13:27.555Z,6.45
2022-08-04T18:16:05.175Z,9.70
2022-08-04T18:18:38.440Z,10.80
2022-08-04T18:21:09.789Z,11.20
2022-08-04T18:23:43.407Z,12.57
2022-08-04T18:26:23.907Z,8.85
2022-08-04T18:28:53.686Z,6.63
2022-08-04T18:31:23.657Z,7.65
2022-08-04T18:33:59.421Z,9.23
2022-08-04T18:36:37.815Z,8.05
2022-08-04T18:39:13.835Z,11.40
2022-08-04T18:42:01.029Z,9.70
2022-08-04T18:44:32.640Z,12.57
2022-08-04T18:47:23.110Z,6.38
2022-08-04T18:50:39.987Z,11.68
2022-08-04T18:52:45.631Z,14.02
2022-08-04T18:55:55.706Z,13.20
2022-08-04T18:58:11.598Z,7.95
2022-08-04T19:00:45.638Z,13.45
2022-08-04T19:03:16.403Z,13.38
2022-08-04T19:05:53.224Z,13.45
2022-08-04T19:08:33.887Z,10.95
2022-08-04T19:11:36.887Z,27.75
2022-08-04T19:13:58.174Z,18.45
2022-08-04T19:16:29.320Z,10.45
2022-08-04T19:19:00.679Z,15.88
2022-08-04T19:21:59.386Z,9.98
2022-08-04T19:24:32.865Z,16.83
2022-08-04T19:27:08.249Z,13.30
2022-08-04T19:29:41.300Z,13.07
2022-08-04T19:32:16.011Z,15.68
2022-08-04T19:34:47.911Z,16.75
2022-08-04T19:37:57.591Z,14.10
2022-08-04T19:40:13.192Z,17.60
2022-08-04T19:42:44.648Z,13.05
2022-08-04T19:45:41.636Z,14.48
2022-08-04T19:48:17.990Z,12.05
2022-08-04T19:50:50.329Z,10.63
2022-08-04T19:53:20.196Z,18.90
2022-08-04T19:56:09.240Z,10.98
2022-08-04T19:58:40.042Z,20.13
2022-08-04T20:01:22.848Z,21.77
2022-08-04T20:04:10.152Z,14.63
2022-08-04T20:06:41.347Z,13.85
2022-08-04T20:11:59.365Z,15.57
2022-08-04T20:14:31.354Z,14.30
2022-08-04T20:17:10.253Z,15.90
2022-08-04T20:19:40.421Z,15.07
2022-08-04T20:22:52.481Z,11.52
2022-08-04T20:25:35.625Z,14.15
2022-08-04T20:30:42.402Z,10.82
2022-08-04T20:33:13.847Z,20.33
2022-08-04T20:36:03.270Z,12.82
2022-08-04T20:43:34.606Z,32.72
2022-08-04T20:46:10.847Z,12.82
2022-08-04T20:48:48.335Z,13.90
2022-08-04T20:54:01.716Z,12.07
2022-08-04T20:56:31.842Z,15.13
2022-08-04T21:01:54.072Z,11.55
2022-08-04T21:04:33.010Z,17.42
2022-08-04T21:07:05.728Z,16.83
2022-08-04T21:09:38.219Z,18.73
2022-08-04T21:12:28.394Z,11.60
2022-08-04T21:15:13.670Z,14.60
2022-08-04T21:17:58.525Z,12.15
2022-08-04T21:20:34.611Z,14.73
2022-08-04T21:23:07.277Z,13.18
2022-08-04T21:25:42.989Z,10.00
2022-08-04T21:28:20.601Z,12.80
2022-08-04T21:30:54.149Z,14.52
2022-08-04T21:33:43.907Z,16.20
2022-08-04T21:36:19.862Z,9.07
2022-08-04T21:38:51.110Z,12.40
2022-08-04T21:41:25.054Z,12.40
2022-08-04T21:43:58.988Z,13.43
2022-08-04T21:46:48.877Z,19.60
2022-08-04T21:49:21.337Z,15.05
2022-08-04T21:51:58.942Z,13.88
2022-08-04T21:54:30.642Z,10.65
2022-08-04T21:56:59.958Z,10.93
2022-08-04T21:59:33.856Z,11.32
2022-08-04T22:02:24.825Z,12.60
2022-08-04T22:04:55.942Z,13.23
2022-08-04T22:07:25.512Z,11.87
2022-08-04T22:10:15.402Z,12.45
2022-08-04T22:13:06.777Z,14.77
2022-08-04T22:16:03.701Z,11.35
2022-08-04T22:18:29.504Z,12.90
2022-08-04T22:20:59.289Z,12.65
2022-08-04T22:23:31.126Z,15.15
2022-08-04T22:26:19.842Z,13.32
2022-08-04T22:28:50.767Z,13.77
2022-08-04T22:31:23.959Z,13.88
2022-08-04T22:33:56.225Z,11.90
2022-08-04T22:36:26.481Z,10.57
2022-08-04T22:39:06.492Z,11.90
2022-08-04T22:42:02.875Z,14.02
2022-08-04T22:44:29.745Z,9.55
2022-08-04T22:47:03.866Z,10.35
2022-08-04T22:49:34.729Z,14.65
2022-08-04T22:52:09.923Z,12.68
2022-08-04T22:54:42.632Z,20.25
2022-08-04T22:57:15.623Z,13.43
2022-08-04T22:59:45.197Z,12.85
2022-08-04T23:02:18.929Z,13.65
2022-08-04T23:04:54.025Z,12.47
2022-08-04T23:07:47.629Z,14.20
2022-08-04T23:10:13.856Z,12.98
2022-08-04T23:15:16.810Z,9.27
2022-08-04T23:17:50.462Z,15.93
2022-08-04T23:20:23.296Z,15.95
2022-08-04T23:23:14.675Z,10.02
2022-08-04T23:26:08.164Z,13.90
2022-08-04T23:28:37.733Z,11.43
2022-08-04T23:31:10.078Z,11.30
2022-08-04T23:33:50.691Z,14.80
2022-08-04T23:36:29.833Z,11.75
2022-08-04T23:39:04.216Z,14.18
2022-08-04T23:41:50.948Z,8.90
2022-08-04T23:44:27.124Z,12.97
2022-08-04T23:47:01.719Z,17.48
2022-08-04T23:49:44.094Z,11.85
2022-08-04T23:52:29.434Z,11.32
2022-08-04T23:55:00.915Z,9.95
2022-08-04T23:58:05.108Z,10.48
